Spirit Of Oceanus — C6PJ8 — position and weather

sailwx.info

Track history (hours):
 
Tides and Currents Weather Stations Pressure Air Temp Water Temp Dewpoint Dewpoint Depression Visibility Wind Speed Wind Dir Waves Ship Positions

Spirit Of Oceanus

Last reported at 2017-Apr-12 07:59 UTC. Time now 2017-Apr-28 00:41 UTC.
Position N 42°11' W 008°51'.
Warning: this ship's position is 15 days out of date.

Type: Passenger vessel. MMSI: 309224000.

Date/timePositionNaut miles runAvg speedWind from/ knotsBaromVisibWave heightAir tempDewpointWater temp
2017-Apr-12 07:59N 42°11' W 008°51'3 5.7
2017-Apr-12 07:30N 42°10' W 008°54'4 5.6
2017-Apr-12 06:49N 42°08' W 008°58'3 6.1
2017-Apr-12 06:15N 42°04' W 009°00'2 6.0
2017-Apr-12 05:54N 42°03' W 009°02'2 6.0
2017-Apr-12 05:30N 42°01' W 009°03'3 6.1
2017-Apr-12 05:00N 41°58' W 009°05'3 5.9
2017-Apr-12 04:30N 41°55' W 009°07'3 5.8
2017-Apr-12 04:00N 41°53' W 009°09'3 5.9
2017-Apr-12 03:30N 41°50' W 009°11'3 5.9
2017-Apr-12 03:00N 41°48' W 009°13'3 6.1
2017-Apr-12 02:30N 41°45' W 009°15'3 6.0
2017-Apr-12 01:59N 41°42' W 009°17'7 6.0
2017-Apr-12 00:52N 41°36' W 009°21'2 6.0
2017-Apr-12 00:30N 41°35' W 009°23'3 6.0
2017-Apr-12 00:00N 41°32' W 009°25'15 5.9
2017-Apr-11 21:33N 41°19' W 009°34'2 5.9
2017-Apr-11 21:12N 41°17' W 009°36'1 5.8
2017-Apr-11 20:59N 41°16' W 009°36'9 5.9
2017-Apr-11 19:29N 41°09' W 009°42'3 6.1
2017-Apr-11 18:58N 41°06' W 009°44'3 5.8
2017-Apr-11 18:29N 41°03' W 009°46'4 5.9
2017-Apr-11 17:54N 41°00' W 009°48'4 6.0
2017-Apr-11 17:13N 40°56' W 009°50'1 5.9
2017-Apr-11 16:59N 40°55' W 009°51'3 5.9
2017-Apr-11 16:30N 40°53' W 009°53'25 5.9
2017-Apr-11 12:12N 40°30' W 010°07'1 6.1
2017-Apr-11 12:00N 40°29' W 010°08'3 6.0
2017-Apr-11 11:25N 40°26' W 010°10'3 6.6
2017-Apr-11 10:58N 40°23' W 010°13'3 7.1
2017-Apr-11 10:30N 40°22' W 010°17'3 6.1
2017-Apr-11 10:00N 40°20' W 010°19'4 5.9
2017-Apr-11 09:15N 40°16' W 010°22'2 5.8
2017-Apr-11 08:59N 40°14' W 010°22'3 5.8
2017-Apr-11 08:30N 40°12' W 010°24'3 6.0
2017-Apr-11 08:00N 40°09' W 010°26'3 6.0
2017-Apr-11 07:30N 40°07' W 010°28'12 5.9
2017-Apr-11 05:23N 39°56' W 010°36'3 5.8
2017-Apr-11 04:48N 39°53' W 010°38'2 6.0
2017-Apr-11 04:29N 39°51' W 010°39'15 5.9
2017-Apr-11 01:54N 39°38' W 010°49'3 6.0
2017-Apr-11 01:21N 39°35' W 010°51'2 6.0
2017-Apr-11 00:59N 39°33' W 010°53'3 6.0
2017-Apr-11 00:30N 39°31' W 010°54'3 5.9
2017-Apr-11 00:00N 39°28' W 010°56'  
2017-Apr-05 13:30N 28°31' W 018°28'102 5.4
2017-Apr-04 18:51N 26°60' W 019°20'5 5.2
2017-Apr-04 17:57N 26°56' W 019°22'2 5.2
2017-Apr-04 17:29N 26°54' W 019°23'4 5.3
2017-Apr-04 16:39N 26°50' W 019°26'1 5.1
2017-Apr-04 16:29N 26°49' W 019°26'  
Track history (hours):
 
Tides and Currents Weather Stations Pressure Air Temp Water Temp Dewpoint Dewpoint Depression Visibility Wind Speed Wind Dir Waves Ship Positions

Spirit Of Oceanus

Last reported at 2017-Apr-12 07:59 UTC. Time now 2017-Apr-28 00:41 UTC.
Position N 42°11' W 008°51'.
Warning: this ship's position is 15 days out of date.

Type: Passenger vessel. MMSI: 309224000.

Date/timePositionNaut miles runAvg speedWind from/ knotsBaromVisibWave heightAir tempDewpointWater temp
2017-Apr-12 07:59N 42°11' W 008°51'3 5.7
2017-Apr-12 07:30N 42°10' W 008°54'4 5.6
2017-Apr-12 06:49N 42°08' W 008°58'3 6.1
2017-Apr-12 06:15N 42°04' W 009°00'2 6.0
2017-Apr-12 05:54N 42°03' W 009°02'2 6.0
2017-Apr-12 05:30N 42°01' W 009°03'3 6.1
2017-Apr-12 05:00N 41°58' W 009°05'3 5.9
2017-Apr-12 04:30N 41°55' W 009°07'3 5.8
2017-Apr-12 04:00N 41°53' W 009°09'3 5.9
2017-Apr-12 03:30N 41°50' W 009°11'3 5.9
2017-Apr-12 03:00N 41°48' W 009°13'3 6.1
2017-Apr-12 02:30N 41°45' W 009°15'3 6.0
2017-Apr-12 01:59N 41°42' W 009°17'7 6.0
2017-Apr-12 00:52N 41°36' W 009°21'2 6.0
2017-Apr-12 00:30N 41°35' W 009°23'3 6.0
2017-Apr-12 00:00N 41°32' W 009°25'15 5.9
2017-Apr-11 21:33N 41°19' W 009°34'2 5.9
2017-Apr-11 21:12N 41°17' W 009°36'1 5.8
2017-Apr-11 20:59N 41°16' W 009°36'9 5.9
2017-Apr-11 19:29N 41°09' W 009°42'3 6.1
2017-Apr-11 18:58N 41°06' W 009°44'3 5.8
2017-Apr-11 18:29N 41°03' W 009°46'4 5.9
2017-Apr-11 17:54N 41°00' W 009°48'4 6.0
2017-Apr-11 17:13N 40°56' W 009°50'1 5.9
2017-Apr-11 16:59N 40°55' W 009°51'3 5.9
2017-Apr-11 16:30N 40°53' W 009°53'25 5.9
2017-Apr-11 12:12N 40°30' W 010°07'1 6.1
2017-Apr-11 12:00N 40°29' W 010°08'3 6.0
2017-Apr-11 11:25N 40°26' W 010°10'3 6.6
2017-Apr-11 10:58N 40°23' W 010°13'3 7.1
2017-Apr-11 10:30N 40°22' W 010°17'3 6.1
2017-Apr-11 10:00N 40°20' W 010°19'4 5.9
2017-Apr-11 09:15N 40°16' W 010°22'2 5.8
2017-Apr-11 08:59N 40°14' W 010°22'3 5.8
2017-Apr-11 08:30N 40°12' W 010°24'3 6.0
2017-Apr-11 08:00N 40°09' W 010°26'3 6.0
2017-Apr-11 07:30N 40°07' W 010°28'12 5.9
2017-Apr-11 05:23N 39°56' W 010°36'3 5.8
2017-Apr-11 04:48N 39°53' W 010°38'2 6.0
2017-Apr-11 04:29N 39°51' W 010°39'15 5.9
2017-Apr-11 01:54N 39°38' W 010°49'3 6.0
2017-Apr-11 01:21N 39°35' W 010°51'2 6.0
2017-Apr-11 00:59N 39°33' W 010°53'3 6.0
2017-Apr-11 00:30N 39°31' W 010°54'3 5.9
2017-Apr-11 00:00N 39°28' W 010°56'  
2017-Apr-05 13:30N 28°31' W 018°28'102 5.4
2017-Apr-04 18:51N 26°60' W 019°20'5 5.2
2017-Apr-04 17:57N 26°56' W 019°22'2 5.2
2017-Apr-04 17:29N 26°54' W 019°23'4 5.3
2017-Apr-04 16:39N 26°50' W 019°26'1 5.1
2017-Apr-04 16:29N 26°49' W 019°26'  

Dump ship's entire track history